logo dgac
Martes 06 de Diciembre del 2022
Buscar por aerodromo o helipuerto
Ingrese nombre de aeródromo, localidad o designador OACI:

Aeródromo: Diego Aracena (PUB) (SCDA)

Ubicación: Iquique, I Región, Chile (20º 32' 07'' S, 70º 10' 53'' W) Ver ubicación en el mapa

Pistas

Luces
Orientación Dimensión Pendiente Superficie Resistencia APCH THR RWY PAPI
01/19 3.350 x 45 0,50 ASPH PCN 53 F/A/W/T
Horas de operación H24
Elevación 48 m / 156 ft
Otra Información Adm : D.G.A.C.
Uso : PUB
Ubicado a 45 km S Ciudad Iquique
TEL (56) 57 2461200
email : aro.iquique@dgac.gob.cl


Otra información ver AIP-Chile Volumen I AD 2.5.1 SCDA

CCCM/FCCV Descargar
andera de Chile
Mapa de Diego Aracena (PUB) (SCDA)

Último METAR

METAR SCDA 060800Z 13004KT CAVOK 18/12 Q1014

Último TAF

TAF SCDA 060400Z 0606/0706 11004KT CAVOK TN18/0606Z TX23/0618Z BECMG 0608/0610 15008KT BECMG 0614/0616 22015KT BECMG 0700/0702 28004KT BKN035 BECMG 0704/0706 10004KT CAVOK

Últimas fotos cámaras

Imagen aerodromo Diego Aracena (PUB) (SCDA) Norte tomada el 06-12-2022 08:21:30 Imagen aerodromo Diego Aracena (PUB) (SCDA) Sur tomada el 06-12-2022 08:21:49

Último NOTAM

A4284/22 NOTAMN Q)SCFZ/QMNLT/IV/NBO/A/000/999/2032S07011W005 A)SCDA B)2211201450 C)2212220230 E)APN LTD, ACFT MAY EXPERIENCE POSS DLA TO ENTRY AND EXIT FM/TO APN DUE TO WIP INSTRUCTIONS: IQUIQUE TWR 118.9MHZ IQUIQUE GNDC 121.7MHZ